Time;durP1;ratioP1;P1;durP2;ratioP2;P2;SDS_P1;SDS_P2;PMS_P1;PMS_P2;Temp;Humidity;BMP_temperature;BMP_pressure;BME280_temperature;BME280_humidity;BME280_pressure;Samples;Min_cycle;Max_cycle;Signal;HPM_P1;HPM_P2
2021/12/13 00:00:24;;;;;;;5.10;4.60;;;5.70;99.90;;;;;;4918844;29;21202;-78
2021/12/13 00:03:12;;;;;;;7.80;4.17;;;5.70;99.90;;;;;;4918526;29;20471;-77
2021/12/13 00:05:49;;;;;;;8.20;4.57;;;5.70;99.90;;;;;;4918891;29;20885;-78
2021/12/13 00:08:19;;;;;;;10.67;6.70;;;5.70;99.90;;;;;;4918382;29;21077;-78
2021/12/13 00:10:53;;;;;;;7.50;4.80;;;5.80;99.90;;;;;;4918663;29;20415;-76
2021/12/13 00:13:26;;;;;;;7.93;4.40;;;5.70;99.90;;;;;;4918615;29;20491;-78
2021/12/13 00:15:59;;;;;;;7.23;4.60;;;5.70;99.90;;;;;;4918741;29;20429;-78
2021/12/13 00:18:29;;;;;;;6.73;3.90;;;5.70;99.90;;;;;;4918087;29;20414;-78
2021/12/13 00:21:07;;;;;;;7.23;4.33;;;5.70;99.90;;;;;;4918514;29;20492;-78
2021/12/13 00:23:41;;;;;;;6.57;4.80;;;5.60;99.90;;;;;;4918141;29;20966;-78
2021/12/13 00:26:07;;;;;;;8.43;4.20;;;5.60;99.90;;;;;;4918335;29;20407;-77
2021/12/13 00:28:38;;;;;;;6.37;5.30;;;5.60;99.90;;;;;;4918224;29;20418;-77
2021/12/13 00:31:23;;;;;;;9.93;5.00;;;5.60;99.90;;;;;;4918248;29;20268;-77
2021/12/13 00:34:08;;;;;;;5.10;4.33;;;5.60;99.90;;;;;;4932737;29;20484;-78
2021/12/13 00:36:47;;;;;;;4.77;3.97;;;5.60;99.90;;;;;;4918647;29;20491;-78
2021/12/13 00:39:22;;;;;;;4.53;4.13;;;5.60;99.90;;;;;;4919780;29;20414;-78
2021/12/13 00:41:50;;;;;;;16.33;5.03;;;5.60;99.90;;;;;;4918780;29;20440;-78
2021/12/13 00:44:22;;;;;;;5.73;4.07;;;5.50;99.90;;;;;;4917884;29;20415;-78
2021/12/13 00:46:51;;;;;;;6.70;5.00;;;5.60;99.90;;;;;;4917826;29;20416;-78
2021/12/13 00:49:21;;;;;;;5.53;4.80;;;5.50;99.90;;;;;;4917589;29;20426;-77
2021/12/13 00:51:50;;;;;;;12.40;6.30;;;5.50;99.90;;;;;;4917823;29;20815;-78
2021/12/13 00:54:35;;;;;;;7.70;5.70;;;5.50;99.90;;;;;;4917602;29;20416;-78
2021/12/13 00:57:00;;;;;;;11.47;5.80;;;5.50;99.90;;;;;;4917723;29;20975;-78
2021/12/13 00:59:36;;;;;;;13.13;6.33;;;5.50;99.90;;;;;;4917689;29;20524;-78
2021/12/13 05:31:10;;;;;;;9.40;6.73;;;5.80;99.90;;;;;;5767479;23;20900;-73
2021/12/13 05:33:39;;;;;;;6.87;5.80;;;5.80;99.90;;;;;;4895148;29;20462;-72
2021/12/13 05:36:19;;;;;;;6.93;5.90;;;5.90;99.90;;;;;;4897451;29;20404;-73
2021/12/13 05:38:47;;;;;;;10.63;6.07;;;5.90;99.90;;;;;;4898059;29;20419;-73
2021/12/13 05:41:24;;;;;;;7.40;5.80;;;5.90;99.90;;;;;;4897917;29;20470;-73
2021/12/13 05:43:55;;;;;;;10.33;6.13;;;5.90;99.90;;;;;;4899134;29;20446;-73
2021/12/13 05:46:25;;;;;;;7.53;6.73;;;5.90;99.90;;;;;;4890073;29;20506;-73
2021/12/13 05:48:56;;;;;;;10.17;6.40;;;5.90;99.90;;;;;;4897901;29;20427;-73
2021/12/13 05:51:30;;;;;;;10.77;6.90;;;6.00;99.90;;;;;;4898010;29;20430;-73
2021/12/13 05:54:07;;;;;;;14.60;10.70;;;6.00;99.90;;;;;;4897673;29;20415;-73
2021/12/13 05:56:46;;;;;;;10.77;7.60;;;6.00;99.90;;;;;;4896793;29;20455;-73
2021/12/13 05:59:23;;;;;;;12.40;6.77;;;6.00;99.90;;;;;;4897841;29;20455;-73
2021/12/13 06:02:11;;;;;;;13.80;6.80;;;6.10;99.90;;;;;;4896504;29;20670;-73
2021/12/13 06:04:58;;;;;;;10.70;6.53;;;6.10;99.90;;;;;;4897533;29;20432;-73
2021/12/13 06:07:27;;;;;;;10.47;7.67;;;6.10;99.90;;;;;;4897945;29;20823;-73
2021/12/13 06:09:58;;;;;;;10.07;6.60;;;6.10;99.90;;;;;;4897747;29;20424;-73
2021/12/13 06:12:36;;;;;;;14.37;7.87;;;6.00;99.90;;;;;;4897970;29;20964;-73
2021/12/13 06:15:19;;;;;;;11.43;7.90;;;6.00;99.90;;;;;;4897813;29;20413;-73
2021/12/13 06:17:56;;;;;;;9.93;7.50;;;6.00;99.90;;;;;;4897708;29;20416;-73
2021/12/13 06:20:28;;;;;;;13.20;7.80;;;6.00;99.90;;;;;;4897701;29;21005;-73
2021/12/13 06:23:11;;;;;;;13.10;8.70;;;6.00;99.90;;;;;;4896223;29;20480;-73
2021/12/13 06:25:38;;;;;;;17.47;8.83;;;6.00;99.90;;;;;;4897671;29;20777;-73
2021/12/13 06:28:06;;;;;;;11.67;8.20;;;6.10;99.90;;;;;;4897325;29;20440;-73
2021/12/13 06:30:38;;;;;;;14.20;8.90;;;6.10;99.90;;;;;;4897397;29;20436;-73
2021/12/13 06:33:09;;;;;;;11.03;6.93;;;6.00;99.90;;;;;;4897304;29;20784;-73
2021/12/13 06:35:52;;;;;;;8.87;6.70;;;6.10;99.90;;;;;;4895703;29;20484;-75
2021/12/13 06:38:33;;;;;;;10.63;7.70;;;6.10;99.90;;;;;;4896558;29;20949;-74
2021/12/13 06:41:13;;;;;;;10.50;7.77;;;6.10;99.90;;;;;;4878800;29;20492;-76
2021/12/13 06:43:54;;;;;;;11.80;8.20;;;6.10;99.90;;;;;;4878958;29;20416;-75
2021/12/13 06:46:23;;;;;;;12.40;8.50;;;6.10;99.90;;;;;;4879107;29;20428;-75
2021/12/13 06:48:59;;;;;;;12.13;7.83;;;6.10;99.90;;;;;;4895764;29;20422;-75
2021/12/13 06:51:45;;;;;;;13.20;8.83;;;6.10;99.90;;;;;;4897037;29;20443;-75
2021/12/13 06:54:26;;;;;;;12.67;9.00;;;6.10;99.90;;;;;;4896977;29;20896;-75
2021/12/13 06:57:02;;;;;;;9.87;8.00;;;6.10;99.90;;;;;;4896661;29;20430;-75
2021/12/13 06:59:30;;;;;;;11.33;8.90;;;6.10;99.90;;;;;;4896607;29;20440;-75
2021/12/13 07:02:02;;;;;;;10.70;8.23;;;6.10;99.90;;;;;;4896689;29;20446;-75
2021/12/13 07:04:55;;;;;;;10.40;6.87;;;6.10;99.90;;;;;;4897486;29;20416;-75
2021/12/13 07:07:26;;;;;;;12.43;7.23;;;6.10;99.90;;;;;;4897017;29;20812;-75
2021/12/13 07:09:57;;;;;;;16.70;7.23;;;6.10;99.90;;;;;;4896175;29;20434;-76
2021/12/13 07:12:25;;;;;;;13.63;7.47;;;6.10;99.90;;;;;;4896729;29;20961;-76
2021/12/13 07:14:51;;;;;;;7.63;6.83;;;6.20;99.90;;;;;;4896716;29;20821;-76
2021/12/13 07:17:19;;;;;;;14.77;7.80;;;6.20;99.90;;;;;;4896805;29;20401;-76
2021/12/13 07:19:49;;;;;;;10.70;6.53;;;6.20;99.90;;;;;;4896645;29;20972;-76
2021/12/13 07:22:24;;;;;;;11.20;7.17;;;6.20;99.90;;;;;;4896394;29;20475;-76
2021/12/13 07:25:00;;;;;;;9.00;5.53;;;6.20;99.90;;;;;;4896711;29;20985;-76
2021/12/13 07:27:33;;;;;;;7.37;6.17;;;6.20;99.90;;;;;;4896614;29;20397;-74
2021/12/13 07:30:16;;;;;;;8.30;6.07;;;6.20;99.90;;;;;;4896392;29;20415;-76
2021/12/13 07:32:53;;;;;;;8.13;6.13;;;6.20;99.90;;;;;;4896433;29;20797;-76
2021/12/13 07:35:34;;;;;;;10.70;5.67;;;6.20;99.90;;;;;;4895404;29;20427;-76
2021/12/13 07:38:25;;;;;;;9.53;6.33;;;6.20;99.90;;;;;;4899845;29;20424;-76
2021/12/13 07:41:05;;;;;;;9.17;6.10;;;6.20;99.90;;;;;;4897386;29;20535;-76
2021/12/13 07:43:34;;;;;;;6.57;5.37;;;6.20;99.90;;;;;;4896384;29;20498;-76
2021/12/13 07:46:02;;;;;;;10.90;7.30;;;6.20;99.90;;;;;;4896316;29;20964;-76
2021/12/13 07:48:41;;;;;;;7.53;6.70;;;6.20;99.90;;;;;;4900100;29;20416;-76
2021/12/13 07:51:06;;;;;;;11.93;6.77;;;6.20;99.90;;;;;;4899964;29;20549;-76
2021/12/13 07:53:40;;;;;;;8.47;6.20;;;6.20;99.90;;;;;;4899894;29;20780;-76
2021/12/13 07:56:06;;;;;;;10.20;6.00;;;6.20;99.90;;;;;;4899961;29;20188;-76
2021/12/13 07:58:39;;;;;;;6.90;6.03;;;6.30;99.90;;;;;;4899968;29;20739;-76
2021/12/13 08:01:21;;;;;;;11.73;5.30;;;6.30;99.90;;;;;;4899828;29;20468;-75
2021/12/13 08:04:15;;;;;;;6.47;5.77;;;6.30;99.90;;;;;;4899842;29;20420;-75
2021/12/13 08:06:49;;;;;;;8.40;4.80;;;6.40;99.90;;;;;;4899842;29;20476;-75
2021/12/13 08:09:23;;;;;;;9.83;5.77;;;6.50;99.90;;;;;;4899855;29;20426;-76
2021/12/13 08:12:00;;;;;;;6.03;5.53;;;6.40;99.90;;;;;;4899607;29;20828;-76
2021/12/13 08:14:30;;;;;;;8.20;5.27;;;6.50;99.90;;;;;;4899760;29;20476;-76
2021/12/13 08:16:56;;;;;;;6.67;5.87;;;6.50;99.90;;;;;;4899655;29;20425;-76
2021/12/13 08:19:26;;;;;;;7.93;5.53;;;6.50;99.90;;;;;;4899521;29;20423;-76
2021/12/13 08:21:58;;;;;;;8.57;6.53;;;6.50;99.90;;;;;;4898198;29;20448;-75
2021/12/13 08:24:32;;;;;;;11.17;7.70;;;6.60;99.90;;;;;;4899471;29;20800;-75
2021/12/13 08:27:06;;;;;;;13.03;6.13;;;6.60;99.90;;;;;;4898178;29;20413;-75
2021/12/13 08:29:36;;;;;;;10.97;7.00;;;6.60;99.90;;;;;;4899456;29;20423;-75
2021/12/13 08:32:10;;;;;;;16.73;6.50;;;6.70;99.90;;;;;;4899204;29;20520;-75
2021/12/13 08:34:38;;;;;;;8.60;6.97;;;6.90;99.90;;;;;;4899281;29;20885;-75
2021/12/13 08:37:13;;;;;;;7.87;6.30;;;7.00;99.90;;;;;;4899190;29;20473;-75
2021/12/13 08:39:39;;;;;;;10.80;7.77;;;7.20;99.90;;;;;;4899082;29;20453;-76
2021/12/13 08:42:12;;;;;;;10.67;7.00;;;7.40;99.90;;;;;;4898985;29;20444;-76
2021/12/13 08:45:11;;;;;;;14.37;8.40;;;7.50;99.90;;;;;;4897932;29;20471;-76
2021/12/13 08:47:43;;;;;;;14.43;7.47;;;7.50;99.90;;;;;;4899251;29;20962;-75
2021/12/13 08:50:21;;;;;;;11.80;7.30;;;7.50;99.90;;;;;;4899053;29;20427;-75
2021/12/13 08:52:55;;;;;;;16.40;9.73;;;7.50;99.90;;;;;;4898833;29;20480;-75
2021/12/13 08:55:32;;;;;;;10.70;6.90;;;7.50;99.90;;;;;;4899102;29;20420;-75
2021/12/13 08:58:11;;;;;;;9.80;7.70;;;7.60;99.90;;;;;;4897975;29;20421;-76
2021/12/13 09:00:37;;;;;;;12.17;7.53;;;7.60;99.90;;;;;;4899517;29;20475;-74
2021/12/13 09:03:12;;;;;;;12.20;8.47;;;7.60;99.90;;;;;;4897555;29;20434;-76
2021/12/13 09:05:56;;;;;;;15.00;7.80;;;7.60;99.90;;;;;;4899036;29;20173;-75
2021/12/13 09:08:48;;;;;;;15.00;8.43;;;7.60;99.90;;;;;;4898809;29;20997;-76
2021/12/13 09:11:32;;;;;;;15.40;8.87;;;7.70;99.90;;;;;;4898332;29;20514;-75
2021/12/13 09:14:13;;;;;;;14.83;7.90;;;7.70;99.90;;;;;;4898503;29;20441;-76
2021/12/13 09:17:06;;;;;;;15.83;8.93;;;7.80;99.90;;;;;;4898709;29;20938;-76
2021/12/13 09:19:36;;;;;;;14.70;9.37;;;7.70;99.90;;;;;;4897443;29;20532;-76
2021/12/13 09:22:16;;;;;;;12.93;8.83;;;7.80;99.90;;;;;;4898391;29;20448;-76
2021/12/13 09:25:04;;;;;;;13.73;9.43;;;7.90;99.90;;;;;;4900635;29;20949;-76
2021/12/13 09:27:38;;;;;;;13.00;9.67;;;7.90;99.90;;;;;;4898502;29;20923;-76
2021/12/13 09:30:27;;;;;;;14.53;11.13;;;8.00;99.90;;;;;;4898480;29;20436;-76
2021/12/13 09:33:19;;;;;;;15.63;9.00;;;8.00;99.90;;;;;;4892771;29;20542;-75
2021/12/13 09:36:05;;;;;;;15.90;10.30;;;8.10;99.90;;;;;;4898390;29;20423;-75
2021/12/13 09:38:56;;;;;;;19.10;10.30;;;8.20;99.90;;;;;;4898290;29;20509;-76
2021/12/13 09:41:22;;;;;;;11.00;9.10;;;8.20;99.90;;;;;;4898294;29;20575;-75
2021/12/13 09:44:09;;;;;;;12.50;8.60;;;8.30;99.90;;;;;;4898063;29;20507;-76
2021/12/13 09:46:46;;;;;;;13.63;8.97;;;8.40;99.90;;;;;;4897385;29;20789;-75
2021/12/13 09:49:20;;;;;;;14.63;9.23;;;8.40;99.90;;;;;;4897885;29;20415;-73
2021/12/13 09:52:04;;;;;;;19.00;9.50;;;8.40;99.90;;;;;;4897946;29;20978;-73
2021/12/13 09:54:35;;;;;;;13.30;9.10;;;8.60;99.90;;;;;;4897829;29;20512;-73
2021/12/13 09:57:06;;;;;;;12.43;8.97;;;8.50;99.90;;;;;;4897899;29;20825;-73
2021/12/13 09:59:42;;;;;;;15.70;9.20;;;8.60;99.90;;;;;;4897750;29;20471;-73
2021/12/13 10:02:26;;;;;;;14.10;8.53;;;8.60;99.90;;;;;;4897644;29;20431;-73
2021/12/13 10:04:53;;;;;;;16.70;10.17;;;8.70;99.90;;;;;;4897521;29;20421;-73
2021/12/13 10:07:25;;;;;;;12.50;8.63;;;8.80;99.90;;;;;;4897681;29;20426;-73
2021/12/13 10:09:56;;;;;;;14.00;8.10;;;8.80;99.90;;;;;;4897244;29;20418;-73
2021/12/13 10:12:35;;;;;;;20.23;8.43;;;8.80;99.90;;;;;;4897646;29;20809;-73
2021/12/13 10:15:25;;;;;;;10.30;8.37;;;8.90;99.90;;;;;;4897499;29;20416;-73
2021/12/13 10:17:55;;;;;;;16.40;8.70;;;8.90;99.90;;;;;;4897502;29;20469;-76
2021/12/13 10:20:34;;;;;;;11.10;8.00;;;9.00;99.90;;;;;;4897710;29;20484;-75
2021/12/13 10:23:00;;;;;;;12.17;8.10;;;9.00;99.90;;;;;;4897834;29;20412;-73
2021/12/13 10:25:30;;;;;;;10.77;9.50;;;9.00;99.90;;;;;;4898469;29;20817;-73
2021/12/13 10:27:56;;;;;;;12.53;8.80;;;8.90;99.90;;;;;;4926192;23;20541;-76
2021/12/13 10:30:31;;;;;;;13.80;9.50;;;8.90;99.90;;;;;;4934683;29;20509;-75
2021/12/13 10:32:58;;;;;;;13.30;9.23;;;9.00;99.90;;;;;;4914050;29;20425;-76
2021/12/13 10:35:29;;;;;;;16.87;9.20;;;9.00;99.90;;;;;;4916267;29;20492;-79
2021/12/13 10:38:00;;;;;;;15.83;9.33;;;9.00;99.90;;;;;;4915567;29;20412;-76
2021/12/13 10:40:46;;;;;;;14.13;9.50;;;9.00;99.90;;;;;;4915649;29;20613;-77
2021/12/13 10:43:26;;;;;;;15.33;8.73;;;9.00;99.90;;;;;;4915404;29;20798;-76
2021/12/13 10:45:56;;;;;;;14.50;7.93;;;9.00;99.90;;;;;;4915641;29;20421;-76
2021/12/13 10:48:26;;;;;;;13.53;6.90;;;9.10;99.90;;;;;;4915602;29;20421;-75
2021/12/13 10:50:59;;;;;;;17.83;8.33;;;9.00;99.90;;;;;;4915353;29;20439;-75
2021/12/13 10:53:25;;;;;;;10.83;8.43;;;9.20;99.90;;;;;;4914009;29;20943;-76
2021/12/13 10:56:01;;;;;;;10.40;7.40;;;9.20;99.90;;;;;;4915938;29;20980;-76
2021/12/13 10:58:30;;;;;;;11.23;7.13;;;9.20;99.90;;;;;;4916912;29;20520;-76
2021/12/13 11:01:09;;;;;;;13.33;6.70;;;9.30;99.90;;;;;;4915485;29;20470;-77
2021/12/13 11:03:36;;;;;;;15.70;8.67;;;9.30;99.90;;;;;;4915356;29;20510;-76
2021/12/13 11:06:03;;;;;;;16.63;9.67;;;9.30;99.90;;;;;;4915666;29;21051;-76
2021/12/13 11:08:30;;;;;;;16.73;9.60;;;9.30;99.90;;;;;;4915372;29;20483;-76
2021/12/13 11:11:07;;;;;;;18.97;10.83;;;9.40;99.90;;;;;;4915109;29;20955;-76
2021/12/13 11:13:36;;;;;;;15.20;10.30;;;9.40;99.90;;;;;;4915195;29;20519;-77
2021/12/13 11:16:06;;;;;;;25.10;12.23;;;9.30;99.90;;;;;;4913858;29;21082;-77
2021/12/13 11:18:33;;;;;;;20.80;12.70;;;9.30;99.90;;;;;;4915136;29;20439;-77
2021/12/13 11:21:08;;;;;;;20.40;13.30;;;9.30;99.90;;;;;;4915087;29;20467;-77
2021/12/13 11:23:34;;;;;;;21.53;12.63;;;9.20;99.90;;;;;;4918821;29;20439;-78
2021/12/13 11:26:03;;;;;;;22.83;12.30;;;9.30;99.90;;;;;;4918944;29;20391;-78
2021/12/13 11:28:32;;;;;;;28.57;13.30;;;9.30;99.90;;;;;;4919215;29;20200;-80
2021/12/13 11:30:58;;;;;;;20.23;14.27;;;9.30;99.90;;;;;;4918911;29;20952;-79
2021/12/13 11:34:03;;;;;;;25.00;13.27;;;9.30;99.90;;;;;;4917637;29;20474;-78
2021/12/13 11:37:12;;;;;;;24.00;12.80;;;9.40;99.90;;;;;;4917852;29;20427;-77
2021/12/13 11:39:57;;;;;;;18.73;11.57;;;9.50;99.90;;;;;;4918939;29;20469;-80
2021/12/13 11:43:03;;;;;;;21.33;12.70;;;9.50;99.90;;;;;;4918751;29;20443;-78
2021/12/13 11:45:46;;;;;;;18.00;12.13;;;9.60;99.90;;;;;;4919029;29;20491;-78
2021/12/13 11:48:41;;;;;;;27.83;13.70;;;9.70;99.90;;;;;;4918662;29;20419;-78
2021/12/13 11:51:56;;;;;;;24.30;12.90;;;9.70;99.90;;;;;;4918705;29;20964;-78
2021/12/13 11:54:47;;;;;;;16.80;12.00;;;9.70;99.90;;;;;;4878466;29;20525;-78
2021/12/13 11:57:34;;;;;;;30.83;13.60;;;9.70;99.90;;;;;;4878623;29;20456;-77
2021/12/13 12:00:41;;;;;;;23.33;12.17;;;9.70;99.90;;;;;;4909844;29;20502;-78
2021/12/13 12:03:27;;;;;;;18.10;11.90;;;9.70;99.90;;;;;;4904491;29;20490;-78
2021/12/13 12:06:08;;;;;;;18.47;11.43;;;9.80;99.90;;;;;;4918184;29;20510;-77
2021/12/13 12:08:46;;;;;;;17.40;11.10;;;9.80;99.90;;;;;;4918192;29;20399;-79
2021/12/13 12:11:38;;;;;;;18.50;11.90;;;9.90;99.90;;;;;;4918466;29;20491;-79
2021/12/13 12:14:10;;;;;;;21.50;12.80;;;10.00;99.90;;;;;;4918050;29;20424;-76
2021/12/13 12:16:40;;;;;;;22.00;11.80;;;10.00;99.90;;;;;;4917277;29;20424;-77
2021/12/13 12:19:14;;;;;;;15.97;10.70;;;10.00;99.90;;;;;;4918048;29;20430;-78
2021/12/13 12:22:05;;;;;;;19.10;10.30;;;9.90;99.90;;;;;;4918369;29;20470;-78
2021/12/13 12:24:38;;;;;;;21.83;11.70;;;9.80;99.90;;;;;;4918032;29;20839;-80
2021/12/13 12:27:09;;;;;;;20.17;11.20;;;9.80;99.90;;;;;;4917990;29;20437;-77
2021/12/13 12:29:40;;;;;;;20.13;10.77;;;9.80;99.90;;;;;;4917971;29;20949;-79
2021/12/13 12:32:13;;;;;;;17.47;9.17;;;9.90;99.90;;;;;;4917901;29;20436;-77
2021/12/13 12:34:50;;;;;;;22.70;11.80;;;9.90;99.90;;;;;;4917867;29;20408;-78
2021/12/13 12:37:30;;;;;;;15.67;9.40;;;9.90;99.90;;;;;;4917987;29;20420;-76
2021/12/13 12:40:07;;;;;;;18.60;10.27;;;9.90;99.90;;;;;;4917674;29;20770;-78
2021/12/13 12:42:42;;;;;;;23.17;11.60;;;9.90;99.90;;;;;;4917941;29;20452;-76
2021/12/13 12:45:19;;;;;;;25.53;12.40;;;9.90;99.90;;;;;;4918229;29;20413;-77
2021/12/13 12:47:59;;;;;;;22.10;12.67;;;9.90;99.90;;;;;;4917859;29;20965;-76
2021/12/13 12:50:42;;;;;;;24.87;12.23;;;9.90;99.90;;;;;;4917859;29;20413;-77
2021/12/13 12:53:49;;;;;;;17.70;11.17;;;9.90;99.90;;;;;;4920062;29;20416;-79
2021/12/13 12:56:35;;;;;;;21.00;11.90;;;9.80;99.90;;;;;;4915991;29;20479;-75
2021/12/13 12:59:19;;;;;;;18.90;11.23;;;9.70;99.90;;;;;;4916317;29;20460;-78
2021/12/13 13:01:53;;;;;;;20.40;12.93;;;9.50;99.90;;;;;;4917865;29;20827;-76
2021/12/13 13:04:23;;;;;;;14.63;9.67;;;9.40;99.90;;;;;;4916109;29;20433;-77
2021/12/13 13:06:51;;;;;;;17.47;11.17;;;9.50;99.90;;;;;;4917258;29;20423;-76
2021/12/13 13:09:17;;;;;;;14.83;9.07;;;9.40;99.90;;;;;;4917368;29;21032;-76
2021/12/13 13:11:47;;;;;;;15.97;9.37;;;9.50;99.90;;;;;;4917203;29;20480;-76
2021/12/13 13:14:19;;;;;;;16.83;9.50;;;9.50;99.90;;;;;;4917318;29;20180;-76
2021/12/13 13:16:48;;;;;;;18.07;10.40;;;9.50;99.90;;;;;;4920053;29;20508;-76
2021/12/13 13:19:38;;;;;;;19.23;13.20;;;9.60;99.90;;;;;;4916954;29;20552;-77
2021/12/13 13:22:14;;;;;;;16.27;11.23;;;9.60;99.90;;;;;;4916918;29;20452;-76
2021/12/13 13:24:42;;;;;;;15.93;10.83;;;9.50;99.90;;;;;;4916746;29;20454;-77
2021/12/13 13:27:09;;;;;;;16.70;10.03;;;9.50;99.90;;;;;;4916962;29;20435;-77
2021/12/13 13:29:36;;;;;;;12.70;9.27;;;9.40;99.90;;;;;;4916951;29;20429;-76
2021/12/13 13:32:04;;;;;;;16.33;9.80;;;9.40;99.90;;;;;;4916811;29;20456;-77
2021/12/13 13:34:34;;;;;;;13.43;9.40;;;9.30;99.90;;;;;;4915301;29;20493;-76
2021/12/13 13:37:09;;;;;;;17.17;9.50;;;9.20;99.90;;;;;;4916678;29;20428;-77
2021/12/13 13:39:42;;;;;;;17.70;10.50;;;9.20;99.90;;;;;;4916648;29;20408;-77
2021/12/13 13:42:13;;;;;;;15.10;9.13;;;9.10;99.90;;;;;;4915633;29;20468;-77
2021/12/13 13:44:49;;;;;;;18.23;10.70;;;9.10;99.90;;;;;;4914069;29;20432;-77
2021/12/13 13:47:20;;;;;;;12.47;9.60;;;9.10;99.90;;;;;;4916835;29;20990;-77
2021/12/13 13:49:46;;;;;;;12.90;9.80;;;9.10;99.90;;;;;;4916492;29;20423;-77
2021/12/13 13:52:27;;;;;;;15.23;9.43;;;9.10;99.90;;;;;;4916594;29;20711;-77
2021/12/13 13:55:01;;;;;;;17.17;9.30;;;9.20;99.90;;;;;;4915150;29;20456;-76
2021/12/13 13:57:30;;;;;;;17.27;8.87;;;9.10;99.90;;;;;;4916730;29;20566;-76
2021/12/13 13:59:57;;;;;;;11.60;8.47;;;9.10;99.90;;;;;;4916275;29;20466;-76
2021/12/13 14:02:41;;;;;;;12.83;9.27;;;9.10;99.90;;;;;;4914973;29;20452;-76
2021/12/13 14:05:11;;;;;;;16.97;8.70;;;9.00;99.90;;;;;;4914954;29;20821;-78
2021/12/13 14:07:38;;;;;;;15.60;10.10;;;9.10;99.90;;;;;;4916241;29;20416;-76
2021/12/13 14:10:11;;;;;;;11.93;9.20;;;9.00;99.90;;;;;;4916228;29;20425;-77
2021/12/13 14:12:49;;;;;;;16.80;9.67;;;9.00;99.90;;;;;;4916036;29;20522;-77
2021/12/13 14:15:23;;;;;;;16.70;9.13;;;9.00;99.90;;;;;;4916376;29;20506;-77
2021/12/13 14:18:01;;;;;;;11.83;9.00;;;9.00;99.90;;;;;;4915996;29;20417;-75
2021/12/13 14:20:39;;;;;;;11.67;8.83;;;8.90;99.90;;;;;;4916182;29;21001;-76
2021/12/13 14:23:14;;;;;;;10.57;8.50;;;8.90;99.90;;;;;;4915835;29;20574;-76
2021/12/13 14:25:53;;;;;;;12.70;9.30;;;8.90;99.90;;;;;;4916180;29;20420;-77
2021/12/13 14:28:41;;;;;;;14.80;9.03;;;8.90;99.90;;;;;;4915772;29;20437;-77
2021/12/13 14:31:11;;;;;;;11.70;8.43;;;8.90;99.90;;;;;;4915910;29;20444;-76
2021/12/13 14:33:47;;;;;;;14.33;9.20;;;9.00;99.90;;;;;;4915686;29;20496;-77
2021/12/13 14:36:15;;;;;;;12.80;9.80;;;9.00;99.90;;;;;;4916241;29;20419;-76
2021/12/13 14:38:48;;;;;;;12.60;8.77;;;9.00;99.90;;;;;;4915931;29;20423;-76
2021/12/13 14:41:16;;;;;;;11.60;8.70;;;8.90;99.90;;;;;;4915948;29;20464;-77
2021/12/13 14:43:52;;;;;;;12.00;9.27;;;8.90;99.90;;;;;;4915626;29;20502;-77
2021/12/13 14:46:22;;;;;;;15.77;7.77;;;8.80;99.90;;;;;;4919494;29;20784;-76
2021/12/13 14:48:59;;;;;;;14.33;9.27;;;8.70;99.90;;;;;;4915506;29;20499;-76
2021/12/13 14:51:24;;;;;;;13.13;9.50;;;8.80;99.90;;;;;;4916381;29;20432;-77
2021/12/13 14:53:50;;;;;;;11.60;9.70;;;8.80;99.90;;;;;;4914625;29;20466;-76
2021/12/13 14:56:20;;;;;;;12.17;10.90;;;8.80;99.90;;;;;;4914526;29;20193;-76
2021/12/13 14:58:53;;;;;;;12.23;9.83;;;8.70;99.90;;;;;;4915391;29;20614;-76
2021/12/13 15:01:25;;;;;;;13.40;10.60;;;8.70;99.90;;;;;;4916116;29;20479;-77
2021/12/13 15:03:58;;;;;;;14.80;9.93;;;8.70;99.90;;;;;;4913359;29;20981;-77
2021/12/13 15:06:25;;;;;;;11.70;10.00;;;8.60;99.90;;;;;;4915473;29;20426;-76
2021/12/13 15:09:03;;;;;;;12.03;8.40;;;8.70;99.90;;;;;;4915280;29;20517;-77
2021/12/13 15:11:34;;;;;;;9.30;7.87;;;8.60;99.90;;;;;;4914082;29;20451;-76
2021/12/13 15:14:07;;;;;;;8.97;7.70;;;8.60;99.90;;;;;;4913797;29;20473;-78
2021/12/13 15:16:37;;;;;;;10.47;8.37;;;8.60;99.90;;;;;;4898491;29;20779;-77
2021/12/13 15:19:11;;;;;;;9.53;7.30;;;8.60;99.90;;;;;;4913759;29;20411;-77
2021/12/13 15:21:47;;;;;;;12.30;8.87;;;8.60;99.90;;;;;;4915138;29;20473;-77
2021/12/13 15:24:17;;;;;;;13.20;9.47;;;8.60;99.90;;;;;;4913380;29;20430;-77
2021/12/13 15:26:47;;;;;;;11.27;8.07;;;8.60;99.90;;;;;;4914879;29;20793;-76
2021/12/13 15:29:23;;;;;;;11.10;9.23;;;8.60;99.90;;;;;;4914968;29;20445;-77
2021/12/13 15:31:52;;;;;;;13.50;7.53;;;8.60;99.90;;;;;;4914881;29;20479;-78
2021/12/13 15:34:21;;;;;;;18.70;8.67;;;8.60;99.90;;;;;;4914776;29;20432;-76
2021/12/13 15:36:49;;;;;;;13.43;7.07;;;8.60;99.90;;;;;;4914999;29;20415;-77
2021/12/13 15:39:16;;;;;;;8.10;7.30;;;8.60;99.90;;;;;;4914851;29;20932;-76
2021/12/13 15:41:46;;;;;;;10.47;7.13;;;8.60;99.90;;;;;;4914936;29;20468;-77
2021/12/13 15:44:13;;;;;;;12.70;8.77;;;8.60;99.90;;;;;;4914737;29;20792;-77
2021/12/13 15:46:49;;;;;;;7.20;6.50;;;8.60;99.90;;;;;;4914937;29;20413;-79
2021/12/13 15:49:30;;;;;;;8.90;6.93;;;8.50;99.90;;;;;;4913938;29;20466;-79
2021/12/13 15:52:17;;;;;;;10.23;5.77;;;8.50;99.90;;;;;;4915163;29;20788;-78
2021/12/13 15:54:53;;;;;;;6.90;6.20;;;8.50;99.90;;;;;;4914837;29;20423;-78
2021/12/13 15:57:30;;;;;;;7.30;5.83;;;8.50;99.90;;;;;;4915290;29;20435;-78
2021/12/13 16:00:01;;;;;;;7.73;5.17;;;8.50;99.90;;;;;;4914844;29;21024;-76
2021/12/13 16:02:31;;;;;;;7.90;6.60;;;8.50;99.90;;;;;;4914932;29;20471;-77
2021/12/13 16:05:01;;;;;;;6.93;5.80;;;8.50;99.90;;;;;;4914577;29;20417;-77
2021/12/13 16:07:27;;;;;;;4.30;3.90;;;8.50;99.90;;;;;;4915488;29;20426;-77
2021/12/13 16:09:59;;;;;;;8.03;4.50;;;8.50;99.90;;;;;;4916958;29;20424;-78
2021/12/13 16:12:31;;;;;;;5.40;4.90;;;8.40;99.90;;;;;;4918470;29;20468;-77
2021/12/13 16:15:08;;;;;;;4.27;3.83;;;8.40;99.90;;;;;;4917053;29;20424;-77
2021/12/13 16:17:36;;;;;;;4.43;4.10;;;8.40;99.90;;;;;;4917206;29;20416;-77
2021/12/13 16:20:11;;;;;;;4.10;3.53;;;8.30;99.90;;;;;;4917056;29;20839;-77
2021/12/13 16:22:37;;;;;;;4.77;4.37;;;8.30;99.90;;;;;;4918291;29;20448;-77
2021/12/13 16:25:35;;;;;;;4.67;4.23;;;8.20;99.90;;;;;;4918025;29;20425;-77
2021/12/13 16:28:07;;;;;;;4.70;4.30;;;8.20;99.90;;;;;;4917902;29;20583;-77
2021/12/13 16:30:52;;;;;;;4.97;4.47;;;8.20;99.90;;;;;;4916854;29;20438;-78
2021/12/13 16:33:31;;;;;;;5.97;5.20;;;8.20;99.90;;;;;;4916797;29;21019;-77
2021/12/13 16:36:06;;;;;;;6.53;5.80;;;8.20;99.90;;;;;;4918286;29;20420;-78
2021/12/13 16:38:31;;;;;;;6.23;5.63;;;8.20;99.90;;;;;;4918135;29;20425;-78
2021/12/13 16:41:01;;;;;;;7.40;5.70;;;8.20;99.90;;;;;;4917845;29;20476;-78
2021/12/13 16:43:30;;;;;;;5.77;5.27;;;8.20;99.90;;;;;;4917897;29;20181;-78
2021/12/13 16:45:58;;;;;;;8.27;4.30;;;8.30;99.90;;;;;;4918925;29;20946;-78
2021/12/13 16:48:33;;;;;;;7.97;7.17;;;8.30;99.90;;;;;;4918343;29;20471;-78
2021/12/13 16:51:09;;;;;;;5.63;5.13;;;8.30;99.90;;;;;;4917744;29;20482;-78
2021/12/13 16:53:35;;;;;;;5.90;5.30;;;8.30;99.90;;;;;;4917724;29;20518;-78
2021/12/13 16:56:03;;;;;;;6.00;5.40;;;8.30;99.90;;;;;;4917741;29;20519;-78
2021/12/13 16:58:31;;;;;;;8.73;7.30;;;8.30;99.90;;;;;;4917776;29;20651;-77
2021/12/13 17:01:02;;;;;;;8.70;7.03;;;8.30;99.90;;;;;;4917521;29;21136;-78
2021/12/13 17:03:30;;;;;;;12.53;7.33;;;8.30;99.90;;;;;;4917057;29;20919;-77
2021/12/13 17:06:07;;;;;;;8.47;7.67;;;8.30;99.90;;;;;;4917592;29;20420;-78
2021/12/13 17:08:52;;;;;;;7.43;6.70;;;8.40;99.90;;;;;;4917593;29;20415;-78
2021/12/13 17:11:22;;;;;;;7.43;6.70;;;8.50;99.90;;;;;;4917479;29;20451;-78
2021/12/13 17:13:50;;;;;;;8.30;7.50;;;8.40;99.90;;;;;;4917113;29;20428;-78
2021/12/13 17:16:35;;;;;;;8.10;7.30;;;8.30;99.90;;;;;;4915423;29;20530;-78
2021/12/13 17:19:07;;;;;;;10.17;7.63;;;8.30;99.90;;;;;;4916426;29;20507;-78
2021/12/13 17:21:36;;;;;;;9.20;7.87;;;8.30;99.90;;;;;;4917031;29;20935;-78
2021/12/13 17:24:07;;;;;;;7.70;7.00;;;8.20;99.90;;;;;;4915138;29;20428;-77
2021/12/13 17:26:44;;;;;;;8.20;7.40;;;8.30;99.90;;;;;;4916123;29;20451;-77
2021/12/13 17:29:19;;;;;;;7.73;6.57;;;8.30;99.90;;;;;;4914449;29;20520;-78
2021/12/13 17:32:08;;;;;;;8.73;6.80;;;8.30;99.90;;;;;;4913537;29;20547;-78
2021/12/13 17:34:52;;;;;;;10.30;6.87;;;8.30;99.90;;;;;;4912183;29;20424;-78
2021/12/13 17:37:26;;;;;;;8.37;7.57;;;8.30;99.90;;;;;;4915794;29;20469;-79
2021/12/13 17:40:00;;;;;;;9.17;7.47;;;8.30;99.90;;;;;;4916336;29;20513;-78
2021/12/13 17:42:42;;;;;;;11.63;8.53;;;8.30;99.90;;;;;;4916594;29;20447;-78
2021/12/13 17:45:17;;;;;;;11.30;9.07;;;8.40;99.90;;;;;;4915196;29;20575;-78
2021/12/13 17:47:45;;;;;;;10.43;9.27;;;8.40;99.90;;;;;;4916547;29;20869;-78
2021/12/13 17:50:26;;;;;;;8.90;8.00;;;8.40;99.90;;;;;;4915146;29;20456;-77
2021/12/13 17:52:59;;;;;;;10.23;9.00;;;8.40;99.90;;;;;;4915610;29;20447;-78
2021/12/13 17:55:28;;;;;;;10.60;8.80;;;8.40;99.90;;;;;;4911114;29;20440;-78
2021/12/13 17:57:56;;;;;;;13.10;10.87;;;8.40;99.90;;;;;;4907272;29;20473;-78